Time;durP1;ratioP1;P1;durP2;ratioP2;P2;SDS_P1;SDS_P2;PMS_P1;PMS_P2;Temp;Humidity;BMP_temperature;BMP_pressure;BME280_temperature;BME280_humidity;BME280_pressure;Samples;Min_cycle;Max_cycle;Signal;HPM_P1;HPM_P2
2021/12/13 00:00:37;;;;;;;;;;;5.30;99.90;;;;;;5046477;28;19932;-85
2021/12/13 00:03:11;;;;;;;;;;;5.50;99.90;;;;;;5049343;28;19929;-86
2021/12/13 00:05:39;;;;;;;;;;;5.30;99.90;;;;;;5047630;28;20349;-87
2021/12/13 00:08:08;;;;;;;;;;;5.30;99.90;;;;;;5045060;28;19926;-86
2021/12/13 00:10:36;;;;;;;;;;;5.40;99.90;;;;;;5045399;28;19925;-87
2021/12/13 00:13:07;;;;;;;;;;;5.20;99.90;;;;;;5045804;28;19925;-87
2021/12/13 00:15:35;;;;;;;;;;;5.30;99.90;;;;;;5047480;28;19925;-87
2021/12/13 00:18:02;;;;;;;;;;;;;;;;;;5057318;28;19925;-85
2021/12/13 00:20:36;;;;;;;;;;;5.30;99.90;;;;;;5061818;28;20009;-85
2021/12/13 00:23:05;;;;;;;;;;;5.20;99.90;;;;;;5058562;28;19929;-87
2021/12/13 00:25:32;;;;;;;;;;;5.30;99.90;;;;;;5050240;28;20387;-86
2021/12/13 00:28:00;;;;;;;;;;;5.30;99.90;;;;;;5046536;28;19925;-86
2021/12/13 00:30:32;;;;;;;;;;;5.00;99.90;;;;;;5053025;28;20288;-86
2021/12/13 00:33:03;;;;;;;;;;;5.20;99.90;;;;;;5057446;28;19924;-85
2021/12/13 00:35:35;;;;;;;;;;;5.30;99.90;;;;;;5060489;28;19951;-86
2021/12/13 00:38:04;;;;;;;;;;;5.30;99.90;;;;;;5061582;28;19913;-85
2021/12/13 00:40:33;;;;;;;;;;;5.10;99.90;;;;;;5054721;28;20399;-86
2021/12/13 00:43:03;;;;;;;;;;;5.20;99.90;;;;;;5054697;28;19932;-87
2021/12/13 00:45:34;;;;;;;;;;;5.40;99.90;;;;;;5047284;28;19968;-85
2021/12/13 00:48:01;;;;;;;;;;;5.40;99.90;;;;;;5046417;28;19925;-87
2021/12/13 00:50:33;;;;;;;;;;;5.40;99.90;;;;;;5045711;28;19941;-86
2021/12/13 00:52:59;;;;;;;;;;;5.40;99.90;;;;;;5045833;28;19929;-86
2021/12/13 00:55:27;;;;;;;;;;;4.90;99.90;;;;;;5052425;28;19925;-86
2021/12/13 00:58:05;;;;;;;;;;;5.10;99.90;;;;;;5055434;28;19948;-85
2021/12/13 01:00:34;;;;;;;;;;;5.00;99.90;;;;;;5051320;28;20016;-86
2021/12/13 01:03:03;;;;;;;;;;;4.90;99.90;;;;;;5048626;28;19925;-86
2021/12/13 01:05:43;;;;;;;;;;;5.30;99.90;;;;;;5048555;28;19925;-86
2021/12/13 01:08:27;;;;;;;;;;;5.40;99.90;;;;;;5049528;28;19925;-86
2021/12/13 01:11:10;;;;;;;;;;;5.40;99.90;;;;;;5012755;28;19940;-85
2021/12/13 01:13:41;;;;;;;;;;;5.40;99.90;;;;;;5055282;28;19925;-84
2021/12/13 01:16:18;;;;;;;;;;;5.70;99.90;;;;;;5045621;28;20277;-85
2021/12/13 01:18:59;;;;;;;;;;;4.90;99.90;;;;;;5043148;28;19929;-85
2021/12/13 01:21:32;;;;;;;;;;;5.70;99.90;;;;;;5047068;28;19932;-85
2021/12/13 01:24:05;;;;;;;;;;;5.50;99.90;;;;;;5053746;28;19945;-86
2021/12/13 01:26:38;;;;;;;;;;;5.50;99.90;;;;;;5060121;28;19932;-85
2021/12/13 01:29:07;;;;;;;;;;;5.50;99.90;;;;;;5058884;28;19948;-85
2021/12/13 01:31:37;;;;;;;;;;;5.50;99.90;;;;;;5057893;28;19932;-85
2021/12/13 01:34:05;;;;;;;;;;;5.30;99.90;;;;;;5055558;28;19929;-85
2021/12/13 01:36:37;;;;;;;;;;;5.50;99.90;;;;;;5047411;28;19925;-87
2021/12/13 01:39:06;;;;;;;;;;;5.50;99.90;;;;;;5045257;28;20023;-86
2021/12/13 01:41:36;;;;;;;;;;;5.40;99.90;;;;;;5044482;28;20011;-86
2021/12/13 01:44:06;;;;;;;;;;;5.50;99.90;;;;;;5051305;28;19925;-85
2021/12/13 01:46:37;;;;;;;;;;;5.50;99.90;;;;;;5039427;28;20311;-85
2021/12/13 01:49:04;;;;;;;;;;;5.50;99.90;;;;;;5040068;28;19925;-85
2021/12/13 01:51:33;;;;;;;;;;;5.40;99.90;;;;;;5045145;28;19960;-85
2021/12/13 01:54:01;;;;;;;;;;;5.50;99.90;;;;;;5044093;28;19929;-85
2021/12/13 01:56:43;;;;;;;;;;;5.30;99.90;;;;;;5041076;28;20338;-83
2021/12/13 01:59:28;;;;;;;;;;;5.40;99.90;;;;;;5042508;28;19925;-85
2021/12/13 02:01:58;;;;;;;;;;;4.90;99.90;;;;;;5047262;28;19925;-84
2021/12/13 02:04:25;;;;;;;;;;;5.50;99.90;;;;;;5059796;28;19940;-83
2021/12/13 02:06:56;;;;;;;;;;;5.20;99.90;;;;;;5058723;28;19925;-87
2021/12/13 02:09:24;;;;;;;;;;;5.50;99.90;;;;;;5048024;28;19925;-85
2021/12/13 02:11:54;;;;;;;;;;;5.50;99.90;;;;;;5045816;28;19948;-85
2021/12/13 02:14:24;;;;;;;;;;;5.50;99.90;;;;;;5046799;28;19932;-85
2021/12/13 02:17:08;;;;;;;;;;;5.00;99.90;;;;;;5055999;28;19976;-85
2021/12/13 02:19:39;;;;;;;;;;;5.50;99.90;;;;;;5043694;28;19925;-86
2021/12/13 02:22:09;;;;;;;;;;;4.90;99.90;;;;;;5043036;28;19925;-86
2021/12/13 02:24:37;;;;;;;;;;;5.50;99.90;;;;;;5043064;28;20027;-86
2021/12/13 02:27:04;;;;;;;;;;;5.50;99.90;;;;;;5044227;28;19952;-86
2021/12/13 02:29:36;;;;;;;;;;;5.50;99.90;;;;;;5044142;28;20335;-86
2021/12/13 02:32:04;;;;;;;;;;;5.60;99.90;;;;;;5044814;28;19935;-85
2021/12/13 02:34:33;;;;;;;;;;;5.60;99.90;;;;;;5070054;22;19951;-79
2021/12/13 02:36:59;;;;;;;;;;;4.90;99.90;;;;;;5065975;28;19959;-82
2021/12/13 02:39:29;;;;;;;;;;;5.40;99.90;;;;;;5066500;28;19935;-81
2021/12/13 02:41:55;;;;;;;;;;;;;;;;;;5065664;28;19939;-81
2021/12/13 02:44:25;;;;;;;;;;;5.60;99.90;;;;;;5069238;28;19935;-80
2021/12/13 02:46:53;;;;;;;;;;;5.60;99.90;;;;;;5074117;28;19925;-79
2021/12/13 02:49:19;;;;;;;;;;;5.20;99.90;;;;;;5067378;28;19925;-79
2021/12/13 02:51:48;;;;;;;;;;;5.30;99.90;;;;;;5067153;28;19967;-80
2021/12/13 02:54:17;;;;;;;;;;;6.50;99.90;;;;;;5066884;28;19925;-80
2021/12/13 02:56:46;;;;;;;;;;;5.20;99.90;;;;;;5066116;28;19924;-81
2021/12/13 02:59:14;;;;;;;;;;;5.50;99.90;;;;;;5066306;28;19925;-82
2021/12/13 03:01:44;;;;;;;;;;;5.10;99.90;;;;;;5065081;28;19924;-81
2021/12/13 03:04:12;;;;;;;;;;;5.50;99.90;;;;;;5065979;28;19963;-81
2021/12/13 03:06:41;;;;;;;;;;;5.50;99.90;;;;;;5067285;28;20303;-81
2021/12/13 03:09:09;;;;;;;;;;;5.50;99.90;;;;;;5070939;28;19988;-81
2021/12/13 03:11:36;;;;;;;;;;;5.50;99.90;;;;;;5072447;28;19936;-81
2021/12/13 03:14:05;;;;;;;;;;;5.50;99.90;;;;;;5071534;28;19924;-81
2021/12/13 03:16:34;;;;;;;;;;;5.50;99.90;;;;;;5068401;28;20004;-81
2021/12/13 03:19:05;;;;;;;;;;;5.30;99.90;;;;;;5068469;28;19925;-79
2021/12/13 03:21:55;;;;;;;;;;;4.90;99.90;;;;;;5067515;28;19925;-82
2021/12/13 03:24:30;;;;;;;;;;;5.50;99.90;;;;;;5066934;28;19932;-82
2021/12/13 03:27:14;;;;;;;;;;;5.40;99.90;;;;;;5067352;28;19940;-82
2021/12/13 03:29:44;;;;;;;;;;;5.50;99.90;;;;;;5067609;28;19925;-81
2021/12/13 03:32:12;;;;;;;;;;;5.40;99.90;;;;;;5069958;28;19925;-80
2021/12/13 03:34:41;;;;;;;;;;;5.50;99.90;;;;;;5076848;28;19913;-81
2021/12/13 03:37:09;;;;;;;;;;;5.50;99.90;;;;;;5076310;28;19961;-81
2021/12/13 03:39:38;;;;;;;;;;;5.50;99.90;;;;;;5070157;28;19931;-81
2021/12/13 03:42:06;;;;;;;;;;;5.50;99.90;;;;;;5066808;28;19924;-81
2021/12/13 03:44:35;;;;;;;;;;;5.50;99.90;;;;;;5064801;28;19924;-81
2021/12/13 03:47:07;;;;;;;;;;;5.80;99.90;;;;;;5065234;28;19924;-81
2021/12/13 03:49:37;;;;;;;;;;;5.50;99.90;;;;;;5064806;28;20007;-81
2021/12/13 03:52:06;;;;;;;;;;;5.50;99.90;;;;;;5067796;28;19917;-80
2021/12/13 03:54:37;;;;;;;;;;;5.50;99.90;;;;;;5059096;28;20039;-81
2021/12/13 03:57:05;;;;;;;;;;;5.30;99.90;;;;;;5059940;28;21363;-80
2021/12/13 03:59:34;;;;;;;;;;;5.50;99.90;;;;;;5073679;28;19932;-80
2021/12/13 04:02:02;;;;;;;;;;;5.50;99.90;;;;;;5074665;28;19925;-80
2021/12/13 04:04:30;;;;;;;;;;;5.50;99.90;;;;;;5068809;28;19925;-81
2021/12/13 04:06:58;;;;;;;;;;;5.50;99.90;;;;;;5068286;28;19929;-81
2021/12/13 04:09:30;;;;;;;;;;;5.50;99.90;;;;;;5068275;28;19924;-81
2021/12/13 04:11:58;;;;;;;;;;;5.60;99.90;;;;;;5065615;28;20005;-79
2021/12/13 04:14:29;;;;;;;;;;;5.20;99.90;;;;;;5065590;28;19978;-81
2021/12/13 04:17:06;;;;;;;;;;;5.50;99.90;;;;;;5065819;28;19947;-80
2021/12/13 04:19:39;;;;;;;;;;;5.60;99.90;;;;;;5066290;28;20020;-80
2021/12/13 04:22:09;;;;;;;;;;;5.50;99.90;;;;;;5066825;28;20273;-80
2021/12/13 04:24:40;;;;;;;;;;;5.60;99.90;;;;;;5068131;28;19924;-80
2021/12/13 04:27:08;;;;;;;;;;;5.60;99.90;;;;;;5069716;28;20288;-80
2021/12/13 04:29:36;;;;;;;;;;;5.50;99.90;;;;;;5069600;28;19924;-81
2021/12/13 04:32:13;;;;;;;;;;;5.70;99.90;;;;;;5076086;28;19975;-80
2021/12/13 04:34:41;;;;;;;;;;;5.60;99.90;;;;;;5077755;28;19913;-79
2021/12/13 04:37:10;;;;;;;;;;;5.60;99.90;;;;;;5073214;28;19925;-81
2021/12/13 04:39:40;;;;;;;;;;;5.60;99.90;;;;;;5069631;28;19995;-81
2021/12/13 04:42:12;;;;;;;;;;;5.20;99.90;;;;;;5073978;28;19924;-80
2021/12/13 04:44:45;;;;;;;;;;;5.70;99.90;;;;;;5077512;28;19931;-80
2021/12/13 04:47:13;;;;;;;;;;;5.50;99.90;;;;;;5077096;28;19925;-80
2021/12/13 04:49:41;;;;;;;;;;;5.40;99.90;;;;;;5074709;28;19925;-80
2021/12/13 04:52:09;;;;;;;;;;;5.50;99.90;;;;;;5069593;28;19936;-81
2021/12/13 04:54:37;;;;;;;;;;;5.60;99.90;;;;;;5069850;28;20355;-80
2021/12/13 04:57:05;;;;;;;;;;;5.50;99.90;;;;;;5069726;28;20039;-81
2021/12/13 04:59:34;;;;;;;;;;;5.60;99.90;;;;;;5069877;28;19925;-81
2021/12/13 05:02:01;;;;;;;;;;;5.60;99.90;;;;;;5069943;28;19936;-81
2021/12/13 05:04:29;;;;;;;;;;;5.60;99.90;;;;;;5069800;28;19925;-81
2021/12/13 05:06:57;;;;;;;;;;;5.60;99.90;;;;;;5070749;28;19951;-81
2021/12/13 05:09:24;;;;;;;;;;;5.60;99.90;;;;;;5072027;28;20288;-82
2021/12/13 05:11:53;;;;;;;;;;;5.40;99.90;;;;;;5071646;28;19986;-81
2021/12/13 05:14:30;;;;;;;;;;;5.60;99.90;;;;;;5070703;28;19963;-81
2021/12/13 05:16:58;;;;;;;;;;;5.60;99.90;;;;;;5070515;28;19928;-82
2021/12/13 05:19:27;;;;;;;;;;;5.60;99.90;;;;;;5071869;28;19925;-81
2021/12/13 05:21:53;;;;;;;;;;;5.40;99.90;;;;;;5069656;28;19924;-82
2021/12/13 05:24:21;;;;;;;;;;;5.60;99.90;;;;;;5068769;28;19925;-81
2021/12/13 05:26:51;;;;;;;;;;;5.70;99.90;;;;;;5067844;28;19929;-81
2021/12/13 05:29:22;;;;;;;;;;;5.50;99.90;;;;;;5062530;28;20367;-81
2021/12/13 05:31:51;;;;;;;;;;;5.70;99.90;;;;;;5059227;28;19925;-81
2021/12/13 05:34:18;;;;;;;;;;;5.70;99.90;;;;;;5058139;28;20419;-81
2021/12/13 05:36:53;;;;;;;;;;;5.40;99.90;;;;;;5057291;28;20322;-81
2021/12/13 05:39:19;;;;;;;;;;;5.60;99.90;;;;;;5058508;28;19979;-81
2021/12/13 05:41:50;;;;;;;;;;;5.60;99.90;;;;;;5059387;28;19964;-80
2021/12/13 05:44:22;;;;;;;;;;;5.70;99.90;;;;;;5059894;28;19925;-80
2021/12/13 05:46:49;;;;;;;;;;;5.60;99.90;;;;;;5061356;28;19979;-80
2021/12/13 05:49:20;;;;;;;;;;;5.70;99.90;;;;;;5076999;28;19913;-79
2021/12/13 05:51:47;;;;;;;;;;;5.70;99.90;;;;;;5077390;28;19925;-79
2021/12/13 05:54:15;;;;;;;;;;;5.70;99.90;;;;;;5067678;28;19948;-80
2021/12/13 05:56:46;;;;;;;;;;;5.80;99.90;;;;;;5066187;28;19924;-80
2021/12/13 05:59:15;;;;;;;;;;;5.70;99.90;;;;;;5067683;28;19936;-80
2021/12/13 06:01:48;;;;;;;;;;;5.70;99.90;;;;;;5069920;28;19932;-81
2021/12/13 06:04:22;;;;;;;;;;;5.70;99.90;;;;;;5075679;28;19924;-80
2021/12/13 06:06:52;;;;;;;;;;;5.70;99.90;;;;;;5076418;28;19924;-81
2021/12/13 06:09:37;;;;;;;;;;;5.70;99.90;;;;;;5073707;28;19947;-80
2021/12/13 06:12:05;;;;;;;;;;;5.70;99.90;;;;;;5069664;28;19975;-80
2021/12/13 06:14:32;;;;;;;;;;;5.70;99.90;;;;;;5068537;28;19936;-79
2021/12/13 06:17:03;;;;;;;;;;;5.60;99.90;;;;;;5069591;28;19931;-79
2021/12/13 06:19:31;;;;;;;;;;;5.70;99.90;;;;;;5076372;28;19935;-80
2021/12/13 06:22:07;;;;;;;;;;;5.70;99.90;;;;;;5076403;28;19967;-80
2021/12/13 06:24:35;;;;;;;;;;;5.70;99.90;;;;;;5069283;28;19952;-82
2021/12/13 06:27:10;;;;;;;;;;;5.50;99.90;;;;;;5068490;28;19936;-80
2021/12/13 06:29:51;;;;;;;;;;;5.70;99.90;;;;;;5069572;28;19925;-80
2021/12/13 06:32:21;;;;;;;;;;;5.90;99.90;;;;;;5068727;28;20422;-80
2021/12/13 06:34:48;;;;;;;;;;;5.80;99.90;;;;;;5067562;28;19925;-81
2021/12/13 06:37:22;;;;;;;;;;;5.70;99.90;;;;;;5066530;28;19925;-79
2021/12/13 06:39:48;;;;;;;;;;;5.70;99.90;;;;;;5067420;28;19947;-82
2021/12/13 06:42:15;;;;;;;;;;;5.70;99.90;;;;;;5068537;28;19974;-80
2021/12/13 06:44:43;;;;;;;;;;;5.80;99.90;;;;;;5067658;28;19925;-79
2021/12/13 06:47:11;;;;;;;;;;;5.80;99.90;;;;;;5067017;28;20263;-81
2021/12/13 06:49:39;;;;;;;;;;;5.60;99.90;;;;;;5067780;28;19975;-81
2021/12/13 06:52:08;;;;;;;;;;;5.80;99.90;;;;;;5069897;28;19932;-79
2021/12/13 06:54:37;;;;;;;;;;;5.80;99.90;;;;;;5068782;28;19925;-79
2021/12/13 06:57:07;;;;;;;;;;;5.70;99.90;;;;;;5068622;28;19928;-80
2021/12/13 06:59:35;;;;;;;;;;;5.70;99.90;;;;;;5068849;28;19925;-80
2021/12/13 07:02:05;;;;;;;;;;;5.70;99.90;;;;;;5067265;28;19925;-81
2021/12/13 07:04:48;;;;;;;;;;;5.80;99.90;;;;;;5067517;28;19931;-81
2021/12/13 07:07:16;;;;;;;;;;;5.80;99.90;;;;;;5068042;28;19925;-81
2021/12/13 07:09:52;;;;;;;;;;;5.90;99.90;;;;;;5067860;28;19925;-80
2021/12/13 07:12:18;;;;;;;;;;;5.50;99.90;;;;;;5065602;28;20307;-80
2021/12/13 07:14:48;;;;;;;;;;;5.80;99.90;;;;;;5067732;28;19925;-79
2021/12/13 07:17:17;;;;;;;;;;;5.90;99.90;;;;;;5069361;28;19970;-79
2021/12/13 07:19:44;;;;;;;;;;;5.80;99.90;;;;;;5068455;28;19925;-80
2021/12/13 07:22:16;;;;;;;;;;;5.90;99.90;;;;;;5068540;28;19925;-81
2021/12/13 07:24:44;;;;;;;;;;;5.90;99.90;;;;;;5066372;28;19925;-80
2021/12/13 07:27:13;;;;;;;;;;;5.80;99.90;;;;;;5065277;28;19971;-80
2021/12/13 07:29:44;;;;;;;;;;;5.80;99.90;;;;;;5064759;28;19947;-81
2021/12/13 07:32:14;;;;;;;;;;;5.90;99.90;;;;;;5065098;28;19951;-81
2021/12/13 07:34:52;;;;;;;;;;;5.90;99.90;;;;;;5064640;28;19925;-81
2021/12/13 07:37:34;;;;;;;;;;;5.90;99.90;;;;;;5064698;28;19987;-81
2021/12/13 07:40:13;;;;;;;;;;;6.00;99.90;;;;;;5065070;28;19929;-82
2021/12/13 07:42:49;;;;;;;;;;;5.60;99.90;;;;;;5064723;28;19925;-81
2021/12/13 07:45:22;;;;;;;;;;;5.20;99.90;;;;;;5064389;28;19932;-80
2021/12/13 07:47:50;;;;;;;;;;;5.30;99.90;;;;;;5065119;28;20314;-81
2021/12/13 07:50:17;;;;;;;;;;;6.00;99.90;;;;;;5065450;28;19925;-81
2021/12/13 07:52:44;;;;;;;;;;;6.00;99.90;;;;;;5064216;28;19947;-79
2021/12/13 07:55:14;;;;;;;;;;;6.00;99.90;;;;;;5064936;28;20334;-79
2021/12/13 07:57:43;;;;;;;;;;;6.00;99.90;;;;;;5065409;28;19925;-81
2021/12/13 08:00:13;;;;;;;;;;;6.60;99.90;;;;;;5067852;28;19929;-81
2021/12/13 08:02:40;;;;;;;;;;;6.00;99.90;;;;;;5075702;28;19912;-80
2021/12/13 08:05:12;;;;;;;;;;;6.10;99.90;;;;;;5080675;28;19923;-80
2021/12/13 08:07:41;;;;;;;;;;;6.10;99.90;;;;;;5070865;28;20020;-80
2021/12/13 08:10:09;;;;;;;;;;;6.00;99.90;;;;;;5064250;28;19929;-81
2021/12/13 08:12:37;;;;;;;;;;;6.10;99.90;;;;;;5066349;28;20449;-81
2021/12/13 08:15:11;;;;;;;;;;;6.10;99.90;;;;;;5066744;28;19925;-80
2021/12/13 08:17:41;;;;;;;;;;;6.20;99.90;;;;;;5067871;28;19929;-81
2021/12/13 08:20:09;;;;;;;;;;;6.10;99.90;;;;;;5067809;28;19935;-81
2021/12/13 08:22:44;;;;;;;;;;;6.20;99.90;;;;;;5067949;28;19925;-82
2021/12/13 08:25:15;;;;;;;;;;;6.10;99.90;;;;;;5069106;28;19928;-81
2021/12/13 08:27:42;;;;;;;;;;;6.10;99.90;;;;;;5070923;28;19928;-82
2021/12/13 08:30:13;;;;;;;;;;;5.10;99.90;;;;;;5071200;28;19913;-81
2021/12/13 08:32:54;;;;;;;;;;;6.20;99.90;;;;;;5072421;28;19929;-80
2021/12/13 08:35:20;;;;;;;;;;;6.20;99.90;;;;;;5111114;22;19955;-84
2021/12/13 08:37:53;;;;;;;;;;;6.20;99.90;;;;;;5075397;28;19963;-84
2021/12/13 08:40:21;;;;;;;;;;;6.30;99.90;;;;;;5075961;28;19928;-86
2021/12/13 08:42:49;;;;;;;;;;;6.30;99.90;;;;;;5078505;28;19913;-85
2021/12/13 08:45:22;;;;;;;;;;;6.30;99.90;;;;;;5073302;28;19929;-84
2021/12/13 08:48:03;;;;;;;;;;;6.30;99.90;;;;;;5072510;28;19925;-86
2021/12/13 08:50:31;;;;;;;;;;;6.40;99.90;;;;;;5073067;28;19929;-84
2021/12/13 08:52:59;;;;;;;;;;;6.50;99.90;;;;;;5073071;28;19979;-83
2021/12/13 08:55:27;;;;;;;;;;;6.50;99.90;;;;;;5073918;28;20020;-85
2021/12/13 08:57:56;;;;;;;;;;;6.50;99.90;;;;;;5074374;28;19925;-84
2021/12/13 09:00:32;;;;;;;;;;;6.50;99.90;;;;;;5072476;28;20370;-85
2021/12/13 09:03:01;;;;;;;;;;;6.50;99.90;;;;;;5072357;28;19931;-85
2021/12/13 09:05:29;;;;;;;;;;;6.60;99.90;;;;;;5073361;28;19925;-84
2021/12/13 09:07:57;;;;;;;;;;;6.60;99.90;;;;;;5071524;28;19924;-83
2021/12/13 09:10:36;;;;;;;;;;;6.60;99.90;;;;;;5071382;28;19929;-84
2021/12/13 09:13:02;;;;;;;;;;;6.60;99.90;;;;;;5071896;28;19971;-85
2021/12/13 09:15:34;;;;;;;;;;;6.60;99.90;;;;;;5068877;28;19948;-85
2021/12/13 09:18:00;;;;;;;;;;;7.60;99.90;;;;;;5072324;28;19925;-84
2021/12/13 09:20:29;;;;;;;;;;;6.60;99.90;;;;;;5073100;28;19913;-85
2021/12/13 09:22:56;;;;;;;;;;;6.60;99.90;;;;;;5073436;28;19924;-85
2021/12/13 09:25:29;;;;;;;;;;;6.60;99.90;;;;;;5078134;28;19928;-84
2021/12/13 09:27:57;;;;;;;;;;;6.60;99.90;;;;;;5077356;28;19925;-86
2021/12/13 09:30:39;;;;;;;;;;;6.60;99.90;;;;;;5068805;28;19925;-85
2021/12/13 09:33:07;;;;;;;;;;;6.50;99.90;;;;;;5069026;28;19925;-85
2021/12/13 09:35:39;;;;;;;;;;;6.70;99.90;;;;;;5067572;28;19931;-86
2021/12/13 09:38:20;;;;;;;;;;;6.60;99.90;;;;;;5067746;28;19924;-85
2021/12/13 09:40:49;;;;;;;;;;;6.70;99.90;;;;;;5067826;28;19925;-85
2021/12/13 09:43:18;;;;;;;;;;;6.70;99.90;;;;;;5065044;28;20333;-84
2021/12/13 09:45:48;;;;;;;;;;;6.70;99.90;;;;;;5064178;28;19948;-84
2021/12/13 09:48:17;;;;;;;;;;;6.80;99.90;;;;;;5065907;28;19925;-86
2021/12/13 09:50:45;;;;;;;;;;;6.80;99.90;;;;;;5064425;28;19932;-84
2021/12/13 09:53:11;;;;;;;;;;;6.80;99.90;;;;;;5063854;28;19929;-84
2021/12/13 09:55:41;;;;;;;;;;;6.80;99.90;;;;;;5067476;28;20281;-85
2021/12/13 09:58:09;;;;;;;;;;;6.80;99.90;;;;;;5062329;28;19932;-85
2021/12/13 10:00:40;;;;;;;;;;;6.80;99.90;;;;;;5069819;28;19935;-85
2021/12/13 10:03:10;;;;;;;;;;;6.80;99.90;;;;;;5071111;28;19924;-84
2021/12/13 10:05:39;;;;;;;;;;;6.80;99.90;;;;;;5066287;28;20275;-84
2021/12/13 10:08:09;;;;;;;;;;;6.80;99.90;;;;;;5066460;28;19928;-84
2021/12/13 10:10:42;;;;;;;;;;;6.80;99.90;;;;;;5079963;28;19932;-83
2021/12/13 10:13:10;;;;;;;;;;;6.80;99.90;;;;;;5079910;28;19935;-82
2021/12/13 10:15:42;;;;;;;;;;;6.90;99.90;;;;;;5079802;28;19932;-81
2021/12/13 10:18:11;;;;;;;;;;;6.90;99.90;;;;;;5079909;28;19909;-82
2021/12/13 10:20:39;;;;;;;;;;;6.90;99.90;;;;;;5079779;28;19913;-82
2021/12/13 10:23:07;;;;;;;;;;;7.00;99.90;;;;;;5079075;28;19933;-81
2021/12/13 10:25:36;;;;;;;;;;;7.00;99.90;;;;;;5079519;28;19920;-82
2021/12/13 10:28:03;;;;;;;;;;;7.00;99.90;;;;;;5077387;28;19928;-84
2021/12/13 10:30:31;;;;;;;;;;;7.00;99.90;;;;;;5075713;28;19935;-85
2021/12/13 10:32:58;;;;;;;;;;;7.10;99.90;;;;;;5076417;28;19925;-85
2021/12/13 10:35:28;;;;;;;;;;;7.10;99.90;;;;;;5071921;28;19924;-85
2021/12/13 10:38:00;;;;;;;;;;;7.10;99.90;;;;;;5071910;28;20334;-84
2021/12/13 10:40:29;;;;;;;;;;;7.00;99.90;;;;;;5071590;28;19925;-85
2021/12/13 10:42:57;;;;;;;;;;;7.10;99.90;;;;;;5072072;28;19924;-85
2021/12/13 10:45:29;;;;;;;;;;;7.10;99.90;;;;;;5070123;28;19975;-85
2021/12/13 10:47:57;;;;;;;;;;;7.10;99.90;;;;;;5077259;28;19931;-84
2021/12/13 10:50:26;;;;;;;;;;;7.20;99.90;;;;;;5077886;28;19924;-84
2021/12/13 10:52:54;;;;;;;;;;;7.10;99.90;;;;;;5073078;28;19928;-84
2021/12/13 10:55:23;;;;;;;;;;;7.10;99.90;;;;;;5072916;28;19924;-84
2021/12/13 10:57:50;;;;;;;;;;;7.10;99.90;;;;;;5073499;28;19925;-85
2021/12/13 11:00:21;;;;;;;;;;;7.10;99.90;;;;;;5070153;28;19924;-83
2021/12/13 11:02:52;;;;;;;;;;;7.20;99.90;;;;;;5076507;28;19909;-83
2021/12/13 11:05:21;;;;;;;;;;;7.20;99.90;;;;;;5077560;28;19935;-83
2021/12/13 11:07:49;;;;;;;;;;;7.20;99.90;;;;;;5077145;28;19925;-83
2021/12/13 11:10:18;;;;;;;;;;;7.30;99.90;;;;;;5077285;28;19923;-84
2021/12/13 11:12:47;;;;;;;;;;;7.10;99.90;;;;;;5077429;28;19917;-83
2021/12/13 11:15:16;;;;;;;;;;;7.30;99.90;;;;;;5076706;28;19925;-84
2021/12/13 11:17:44;;;;;;;;;;;6.20;99.90;;;;;;5073612;28;19931;-85
2021/12/13 11:20:12;;;;;;;;;;;7.40;99.90;;;;;;5072715;28;19925;-87
2021/12/13 11:22:39;;;;;;;;;;;7.30;99.90;;;;;;5072695;28;19978;-85
2021/12/13 11:25:09;;;;;;;;;;;7.40;99.90;;;;;;5070590;28;19947;-85
2021/12/13 11:27:37;;;;;;;;;;;7.40;99.90;;;;;;5067178;28;19956;-86
2021/12/13 11:30:05;;;;;;;;;;;7.40;99.90;;;;;;5064599;28;19936;-86
2021/12/13 11:32:49;;;;;;;;;;;7.40;99.90;;;;;;5063751;28;19935;-86
2021/12/13 11:35:46;;;;;;;;;;;7.40;99.90;;;;;;5066048;28;19925;-86
2021/12/13 11:38:26;;;;;;;;;;;7.50;99.90;;;;;;5067787;28;19925;-86
2021/12/13 11:41:05;;;;;;;;;;;7.40;99.90;;;;;;5067705;28;20011;-85
2021/12/13 11:43:38;;;;;;;;;;;7.40;99.90;;;;;;5068199;28;19978;-86
2021/12/13 11:46:19;;;;;;;;;;;7.50;99.90;;;;;;5071430;28;19925;-85
2021/12/13 11:48:52;;;;;;;;;;;7.50;99.90;;;;;;5082206;28;19909;-83
2021/12/13 11:51:35;;;;;;;;;;;7.60;99.90;;;;;;5082276;28;19913;-84
2021/12/13 11:54:27;;;;;;;;;;;7.60;99.90;;;;;;5082447;28;19915;-83
2021/12/13 11:57:02;;;;;;;;;;;7.70;99.90;;;;;;5081841;28;19933;-86
2021/12/13 11:59:35;;;;;;;;;;;7.70;99.90;;;;;;5079565;28;19925;-85
2021/12/13 12:02:07;;;;;;;;;;;7.70;99.90;;;;;;5074594;28;19929;-85
2021/12/13 12:05:06;;;;;;;;;;;7.70;99.90;;;;;;5074491;28;19983;-86
2021/12/13 12:07:38;;;;;;;;;;;7.70;99.90;;;;;;5076180;28;19920;-86
2021/12/13 12:10:13;;;;;;;;;;;7.70;99.90;;;;;;5081701;28;19940;-85
2021/12/13 12:12:47;;;;;;;;;;;7.70;99.90;;;;;;5082063;28;19913;-86
2021/12/13 12:15:16;;;;;;;;;;;7.80;99.90;;;;;;5081073;28;19912;-84
2021/12/13 12:17:43;;;;;;;;;;;7.80;99.90;;;;;;5078342;28;19951;-85
2021/12/13 12:20:14;;;;;;;;;;;7.80;99.90;;;;;;5071035;28;19939;-86
2021/12/13 12:22:48;;;;;;;;;;;7.90;99.90;;;;;;5069494;28;19924;-87
2021/12/13 12:25:15;;;;;;;;;;;7.90;99.90;;;;;;5068166;28;19932;-85
2021/12/13 12:27:42;;;;;;;;;;;7.90;99.90;;;;;;5070968;28;19928;-85
2021/12/13 12:30:10;;;;;;;;;;;7.90;99.90;;;;;;5068325;28;19948;-86
2021/12/13 12:32:41;;;;;;;;;;;7.90;99.90;;;;;;5067784;28;19925;-86
2021/12/13 12:35:11;;;;;;;;;;;7.90;99.90;;;;;;5070356;28;19932;-86
2021/12/13 12:37:56;;;;;;;;;;;7.90;99.90;;;;;;5070531;28;19947;-86
2021/12/13 12:40:31;;;;;;;;;;;7.90;99.90;;;;;;5071734;28;20288;-87
2021/12/13 12:42:59;;;;;;;;;;;8.20;99.90;;;;;;5071350;28;19924;-86
2021/12/13 12:45:28;;;;;;;;;;;7.90;99.90;;;;;;5073132;28;19924;-86
2021/12/13 12:48:13;;;;;;;;;;;7.90;99.90;;;;;;5072941;28;19928;-86
2021/12/13 12:50:45;;;;;;;;;;;8.00;99.90;;;;;;5071099;28;19931;-85
2021/12/13 12:53:13;;;;;;;;;;;7.90;99.90;;;;;;5072078;28;19916;-86
2021/12/13 12:55:42;;;;;;;;;;;8.00;99.90;;;;;;5073199;28;19928;-86
2021/12/13 12:58:11;;;;;;;;;;;8.10;99.90;;;;;;5073421;28;19912;-85
2021/12/13 13:00:39;;;;;;;;;;;8.10;99.90;;;;;;5081309;28;19908;-86
2021/12/13 13:03:06;;;;;;;;;;;8.10;99.90;;;;;;5079718;28;19908;-85
2021/12/13 13:05:32;;;;;;;;;;;8.10;99.90;;;;;;5079975;28;19925;-84
2021/12/13 13:08:00;;;;;;;;;;;8.10;99.90;;;;;;5079284;28;19943;-85
2021/12/13 13:10:35;;;;;;;;;;;8.20;99.90;;;;;;5069795;28;19925;-87
2021/12/13 13:13:05;;;;;;;;;;;8.20;99.90;;;;;;5070267;28;19925;-86
2021/12/13 13:15:33;;;;;;;;;;;8.20;99.90;;;;;;5072696;28;19947;-86
2021/12/13 13:18:00;;;;;;;;;;;8.10;99.90;;;;;;5073203;28;19924;-85
2021/12/13 13:20:28;;;;;;;;;;;8.10;99.90;;;;;;5068049;28;19931;-85
2021/12/13 13:22:56;;;;;;;;;;;8.20;99.90;;;;;;5067794;28;19925;-85
2021/12/13 13:25:28;;;;;;;;;;;7.80;99.90;;;;;;5067037;28;19929;-85
2021/12/13 13:27:55;;;;;;;;;;;8.10;99.90;;;;;;5066451;28;19925;-86
2021/12/13 13:30:23;;;;;;;;;;;8.10;99.90;;;;;;5065439;28;20394;-86
2021/12/13 13:32:50;;;;;;;;;;;8.10;99.90;;;;;;5066913;28;19925;-84
2021/12/13 13:35:16;;;;;;;;;;;8.20;99.90;;;;;;5066733;28;20334;-86
2021/12/13 13:37:44;;;;;;;;;;;8.60;99.90;;;;;;5066026;28;19963;-85
2021/12/13 13:40:12;;;;;;;;;;;8.20;99.90;;;;;;5068081;28;19925;-84
2021/12/13 13:42:48;;;;;;;;;;;8.20;99.90;;;;;;5069200;28;19925;-85
2021/12/13 13:45:18;;;;;;;;;;;8.20;99.90;;;;;;5066010;28;19925;-85
2021/12/13 13:47:46;;;;;;;;;;;8.00;99.90;;;;;;5067450;28;19925;-85
2021/12/13 13:50:17;;;;;;;;;;;8.20;99.90;;;;;;5065812;28;19929;-85
2021/12/13 13:52:45;;;;;;;;;;;8.20;99.90;;;;;;5064978;28;19947;-85
2021/12/13 13:55:19;;;;;;;;;;;8.20;99.90;;;;;;5065433;28;19980;-85
2021/12/13 13:57:49;;;;;;;;;;;8.20;99.90;;;;;;5065060;28;19931;-86
2021/12/13 14:00:17;;;;;;;;;;;8.40;99.90;;;;;;5066886;28;19979;-85
2021/12/13 14:02:43;;;;;;;;;;;7.30;99.90;;;;;;5067541;28;19947;-86
2021/12/13 14:05:11;;;;;;;;;;;8.20;99.90;;;;;;5065952;28;19925;-85
2021/12/13 14:07:38;;;;;;;;;;;7.40;99.90;;;;;;5075300;28;19940;-83
2021/12/13 14:10:08;;;;;;;;;;;8.70;99.90;;;;;;5079944;28;19935;-82
2021/12/13 14:12:37;;;;;;;;;;;8.30;99.90;;;;;;5079970;28;19935;-81
2021/12/13 14:15:10;;;;;;;;;;;8.30;99.90;;;;;;5079850;28;19943;-82
2021/12/13 14:17:41;;;;;;;;;;;8.30;99.90;;;;;;5079835;28;19932;-84
2021/12/13 14:20:16;;;;;;;;;;;8.30;99.90;;;;;;5079775;28;19913;-82
2021/12/13 14:22:42;;;;;;;;;;;8.30;99.90;;;;;;5079935;28;19985;-83
2021/12/13 14:25:09;;;;;;;;;;;8.30;99.90;;;;;;5071935;28;19924;-85
2021/12/13 14:27:36;;;;;;;;;;;8.20;99.90;;;;;;5062640;28;19924;-86
2021/12/13 14:30:10;;;;;;;;;;;8.40;99.90;;;;;;5063559;28;19964;-86
2021/12/13 14:32:37;;;;;;;;;;;8.40;99.90;;;;;;5077185;28;19924;-85
2021/12/13 14:35:11;;;;;;;;;;;8.40;99.90;;;;;;5112886;22;20034;-81
2021/12/13 14:37:38;;;;;;;;;;;8.40;99.90;;;;;;5067975;28;19948;-82
2021/12/13 14:40:06;;;;;;;;;;;8.40;99.90;;;;;;5069209;28;19928;-82
2021/12/13 14:42:32;;;;;;;;;;;8.30;99.90;;;;;;5067981;28;20414;-83
2021/12/13 14:45:01;;;;;;;;;;;8.40;99.90;;;;;;5075122;28;19924;-81
2021/12/13 14:47:34;;;;;;;;;;;8.40;99.90;;;;;;5074985;28;19924;-82
2021/12/13 14:50:04;;;;;;;;;;;8.40;99.90;;;;;;5068612;28;19925;-82